Time;durP1;ratioP1;P1;durP2;ratioP2;P2;SDS_P1;SDS_P2;PMS_P1;PMS_P2;Temp;Humidity;BMP_temperature;BMP_pressure;BME280_temperature;BME280_humidity;BME280_pressure;Samples;Min_cycle;Max_cycle;Signal;HPM_P1;HPM_P2
2021/04/20 00:00:13;;;;;;;23.05;10.57;;;;;;;;;;5055521;28;20036;-65
2021/04/20 00:02:39;;;;;;;25.00;10.73;;;;;;;;;;5055653;28;20056;-65
2021/04/20 00:05:09;;;;;;;34.05;11.75;;;;;;;;;;5055224;28;20470;-65
2021/04/20 00:07:34;;;;;;;22.63;11.55;;;;;;;;;;5055759;28;20476;-66
2021/04/20 00:10:00;;;;;;;21.60;10.82;;;;;;;;;;5055275;28;20037;-66
2021/04/20 00:12:25;;;;;;;25.95;11.98;;;;;;;;;;5055185;28;20420;-66
2021/04/20 00:14:50;;;;;;;26.42;11.77;;;;;;;;;;5055280;28;20096;-64
2021/04/20 00:17:16;;;;;;;29.35;10.77;;;;;;;;;;5055373;28;20120;-64
2021/04/20 00:19:41;;;;;;;26.70;10.77;;;;;;;;;;5053912;28;20469;-64
2021/04/20 00:22:06;;;;;;;26.90;12.07;;;;;;;;;;5055246;28;20075;-64
2021/04/20 00:24:31;;;;;;;23.17;10.85;;;;;;;;;;5055081;28;20033;-64
2021/04/20 00:26:57;;;;;;;31.90;11.95;;;;;;;;;;5055236;28;20045;-64
2021/04/20 00:29:22;;;;;;;23.85;11.30;;;;;;;;;;5053619;28;20025;-64
2021/04/20 00:31:47;;;;;;;24.15;11.52;;;;;;;;;;5055121;28;20078;-63
2021/04/20 00:34:12;;;;;;;28.08;11.38;;;;;;;;;;5054841;28;20033;-64
2021/04/20 00:36:38;;;;;;;29.17;12.60;;;;;;;;;;5055018;28;20017;-64
2021/04/20 00:39:03;;;;;;;29.98;12.38;;;;;;;;;;5054562;28;20419;-64
2021/04/20 00:41:28;;;;;;;30.23;12.00;;;;;;;;;;5054732;28;20470;-64
2021/04/20 00:43:54;;;;;;;27.02;11.35;;;;;;;;;;5055069;28;20013;-64
2021/04/20 00:46:20;;;;;;;32.33;11.75;;;;;;;;;;5054678;28;20384;-63
2021/04/20 00:48:46;;;;;;;30.67;12.93;;;;;;;;;;5054694;28;20028;-66
2021/04/20 00:51:12;;;;;;;25.48;11.50;;;;;;;;;;5054301;28;20031;-66
2021/04/20 00:53:37;;;;;;;32.10;12.45;;;;;;;;;;5054949;28;20068;-65
2021/04/20 00:56:03;;;;;;;30.13;12.13;;;;;;;;;;5054631;28;20045;-66
2021/04/20 00:58:29;;;;;;;24.15;11.25;;;;;;;;;;5054610;28;20024;-66
2021/04/20 01:00:55;;;;;;;34.38;13.13;;;;;;;;;;5054427;28;20028;-66
2021/04/20 01:03:20;;;;;;;25.27;12.73;;;;;;;;;;5054509;28;20090;-66
2021/04/20 01:05:46;;;;;;;35.78;12.10;;;;;;;;;;5054344;28;20021;-66
2021/04/20 01:08:13;;;;;;;30.60;11.15;;;;;;;;;;5054405;28;20035;-66
2021/04/20 01:10:43;;;;;;;27.92;12.75;;;;;;;;;;5054158;28;20186;-65
2021/04/20 01:13:09;;;;;;;29.02;11.50;;;;;;;;;;5054331;28;20017;-66
2021/04/20 01:15:35;;;;;;;25.20;11.18;;;;;;;;;;5054055;28;20029;-63
2021/04/20 01:18:09;;;;;;;28.45;12.73;;;;;;;;;;5054319;28;20040;-63
2021/04/20 01:20:35;;;;;;;28.92;11.93;;;;;;;;;;5053974;28;20021;-63
2021/04/20 01:23:01;;;;;;;31.85;13.20;;;;;;;;;;5054199;28;20094;-63
2021/04/20 01:25:27;;;;;;;32.70;12.82;;;;;;;;;;5053906;28;20025;-63
2021/04/20 01:27:53;;;;;;;39.05;13.10;;;;;;;;;;5053999;28;20029;-64
2021/04/20 01:30:18;;;;;;;34.50;12.85;;;;;;;;;;5050828;28;20036;-65
2021/04/20 01:32:44;;;;;;;25.30;11.60;;;;;;;;;;5053398;28;20590;-66
2021/04/20 01:35:10;;;;;;;31.48;11.38;;;;;;;;;;5053243;28;20510;-66
2021/04/20 01:37:36;;;;;;;33.42;12.95;;;;;;;;;;5053222;28;20477;-66
2021/04/20 01:40:01;;;;;;;32.80;13.48;;;;;;;;;;5053278;28;20052;-66
2021/04/20 01:42:26;;;;;;;30.38;12.93;;;;;;;;;;5053541;28;20061;-64
2021/04/20 01:44:52;;;;;;;40.10;13.65;;;;;;;;;;5053560;28;20120;-63
2021/04/20 01:47:18;;;;;;;30.30;12.85;;;;;;;;;;5053538;28;20021;-64
2021/04/20 01:49:43;;;;;;;35.05;13.40;;;;;;;;;;5053565;28;20044;-63
2021/04/20 01:52:08;;;;;;;33.97;13.50;;;;;;;;;;5053622;28;20421;-64
2021/04/20 01:54:33;;;;;;;32.72;12.60;;;;;;;;;;5053438;28;20020;-63
2021/04/20 01:57:00;;;;;;;30.63;11.52;;;;;;;;;;5053541;28;20033;-64
2021/04/20 01:59:26;;;;;;;33.58;12.45;;;;;;;;;;5052731;28;20029;-63
2021/04/20 02:01:51;;;;;;;28.60;12.75;;;;;;;;;;5053151;28;20453;-64
2021/04/20 02:04:16;;;;;;;31.40;12.38;;;;;;;;;;5053210;28;20029;-63
2021/04/20 02:06:42;;;;;;;31.23;12.48;;;;;;;;;;5053514;28;20032;-64
2021/04/20 02:09:08;;;;;;;37.05;12.75;;;;;;;;;;5053180;28;20462;-63
2021/04/20 02:11:33;;;;;;;35.00;12.98;;;;;;;;;;5052975;28;20440;-64
2021/04/20 02:13:59;;;;;;;30.13;12.65;;;;;;;;;;5053493;28;20040;-64
2021/04/20 02:16:24;;;;;;;39.97;14.00;;;;;;;;;;5053276;28;20100;-64
2021/04/20 02:18:55;;;;;;;35.45;13.18;;;;;;;;;;5053096;28;20025;-64
2021/04/20 02:21:21;;;;;;;37.55;13.85;;;;;;;;;;5053155;28;20029;-64
2021/04/20 02:23:46;;;;;;;41.22;14.45;;;;;;;;;;5053220;28;20021;-64
2021/04/20 02:26:13;;;;;;;38.50;13.95;;;;;;;;;;5051693;28;20033;-64
2021/04/20 02:28:38;;;;;;;36.78;13.57;;;;;;;;;;5053203;28;20059;-64
2021/04/20 02:31:05;;;;;;;36.75;14.20;;;;;;;;;;5052926;28;20529;-64
2021/04/20 02:33:31;;;;;;;35.45;13.00;;;;;;;;;;5052962;28;20058;-63
2021/04/20 02:35:57;;;;;;;34.15;13.88;;;;;;;;;;5053005;28;20068;-64
2021/04/20 02:38:22;;;;;;;42.53;14.63;;;;;;;;;;5052641;28;20457;-64
2021/04/20 02:40:52;;;;;;;42.78;15.45;;;;;;;;;;5053002;28;20037;-64
2021/04/20 02:43:17;;;;;;;36.80;14.32;;;;;;;;;;5052689;28;20074;-64
2021/04/20 02:45:43;;;;;;;40.03;15.07;;;;;;;;;;5052842;28;20108;-64
2021/04/20 02:48:09;;;;;;;37.60;14.38;;;;;;;;;;5056058;28;20111;-64
2021/04/20 02:50:34;;;;;;;40.53;13.93;;;;;;;;;;5056832;28;20167;-64
2021/04/20 02:53:00;;;;;;;39.33;15.20;;;;;;;;;;5056968;28;20020;-64
2021/04/20 02:55:26;;;;;;;45.92;15.27;;;;;;;;;;5056828;28;20138;-64
2021/04/20 02:57:56;;;;;;;47.90;15.60;;;;;;;;;;5056842;28;20060;-64
2021/04/20 03:00:22;;;;;;;42.78;14.77;;;;;;;;;;5056680;28;20029;-64
2021/04/20 03:02:50;;;;;;;44.58;15.77;;;;;;;;;;5056822;28;20025;-63
2021/04/20 03:05:17;;;;;;;42.90;14.50;;;;;;;;;;5056355;28;20495;-63
2021/04/20 03:07:43;;;;;;;45.53;15.00;;;;;;;;;;5057039;28;20025;-64
2021/04/20 03:10:09;;;;;;;38.38;13.73;;;;;;;;;;5056407;28;20110;-63
2021/04/20 03:12:35;;;;;;;43.78;15.60;;;;;;;;;;5056629;28;20032;-63
2021/04/20 03:15:00;;;;;;;47.00;14.68;;;;;;;;;;5056486;28;20036;-64
2021/04/20 03:17:27;;;;;;;39.28;14.15;;;;;;;;;;5056471;28;20033;-64
2021/04/20 03:19:54;;;;;;;47.28;14.32;;;;;;;;;;5056367;28;20053;-64
2021/04/20 03:22:20;;;;;;;51.97;16.38;;;;;;;;;;5056371;28;20020;-64
2021/04/20 03:24:48;;;;;;;48.72;14.80;;;;;;;;;;5056330;28;20029;-64
2021/04/20 03:27:13;;;;;;;43.92;14.82;;;;;;;;;;5056274;28;20116;-64
2021/04/20 03:29:38;;;;;;;43.92;15.50;;;;;;;;;;5056094;28;20584;-63
2021/04/20 03:32:04;;;;;;;42.03;14.52;;;;;;;;;;5056288;28;20071;-63
2021/04/20 03:34:34;;;;;;;49.55;14.82;;;;;;;;;;5056029;28;20108;-64
2021/04/20 03:37:06;;;;;;;47.13;15.20;;;;;;;;;;5056244;28;20021;-63
2021/04/20 03:39:35;;;;;;;43.83;15.43;;;;;;;;;;5055281;28;20040;-63
2021/04/20 03:42:07;;;;;;;47.17;15.18;;;;;;;;;;5054871;28;20038;-64
2021/04/20 03:44:52;;;;;;;46.53;15.65;;;;;;;;;;5054690;28;20051;-63
2021/04/20 03:47:19;;;;;;;45.10;16.40;;;;;;;;;;5053792;28;20505;-64
2021/04/20 03:49:47;;;;;;;50.35;16.60;;;;;;;;;;5054572;28;20048;-63
2021/04/20 03:52:32;;;;;;;45.88;16.10;;;;;;;;;;5054668;28;20050;-64
2021/04/20 03:54:58;;;;;;;43.88;15.40;;;;;;;;;;5053751;28;20040;-64
2021/04/20 03:57:26;;;;;;;47.13;16.35;;;;;;;;;;5054192;28;20097;-64
2021/04/20 03:59:52;;;;;;;49.47;15.98;;;;;;;;;;5054440;28;20029;-63
2021/04/20 04:02:17;;;;;;;48.35;16.30;;;;;;;;;;5054540;28;20108;-64
2021/04/20 04:04:44;;;;;;;41.97;15.57;;;;;;;;;;5054401;28;20116;-63
2021/04/20 04:07:10;;;;;;;49.33;16.92;;;;;;;;;;5054536;28;20075;-63
2021/04/20 04:09:36;;;;;;;51.20;16.35;;;;;;;;;;5054199;28;20438;-64
2021/04/20 04:12:03;;;;;;;50.63;15.60;;;;;;;;;;5054393;28;20086;-63
2021/04/20 04:14:29;;;;;;;48.67;16.80;;;;;;;;;;5054145;28;20043;-64
2021/04/20 04:16:59;;;;;;;49.03;15.77;;;;;;;;;;5054097;28;20585;-63
2021/04/20 04:19:26;;;;;;;45.88;15.77;;;;;;;;;;5054049;28;20033;-64
2021/04/20 04:21:52;;;;;;;51.13;16.38;;;;;;;;;;5053954;28;20100;-64
2021/04/20 04:24:18;;;;;;;49.83;15.38;;;;;;;;;;5053730;28;20460;-64
2021/04/20 04:26:49;;;;;;;47.33;15.70;;;;;;;;;;5054216;28;20129;-63
2021/04/20 04:29:15;;;;;;;66.00;15.77;;;;;;;;;;5054010;28;20375;-64
2021/04/20 04:31:42;;;;;;;58.90;15.60;;;;;;;;;;5054321;28;20033;-63
2021/04/20 04:34:09;;;;;;;50.42;15.32;;;;;;;;;;5053904;28;20102;-66
2021/04/20 04:36:34;;;;;;;56.28;15.55;;;;;;;;;;5053836;28;20021;-65
2021/04/20 04:38:59;;;;;;;53.22;16.98;;;;;;;;;;5029748;28;693055;-65
2021/04/20 04:41:25;;;;;;;51.75;17.05;;;;;;;;;;5054707;28;20112;-66
2021/04/20 04:43:50;;;;;;;52.95;16.02;;;;;;;;;;5054965;28;20339;-65
2021/04/20 04:46:15;;;;;;;62.78;17.35;;;;;;;;;;5055004;28;20017;-63
2021/04/20 04:48:41;;;;;;;50.95;15.60;;;;;;;;;;5054824;28;20079;-63
2021/04/20 04:51:07;;;;;;;55.40;15.38;;;;;;;;;;5054639;28;20036;-63
2021/04/20 04:53:33;;;;;;;56.08;16.38;;;;;;;;;;5054764;28;20013;-64
2021/04/20 04:56:02;;;;;;;58.83;15.63;;;;;;;;;;5054561;28;20043;-63
2021/04/20 04:58:33;;;;;;;52.05;17.33;;;;;;;;;;5054560;28;20021;-63
2021/04/20 05:00:59;;;;;;;49.45;15.55;;;;;;;;;;5054477;28;20040;-64
2021/04/20 05:03:24;;;;;;;58.80;17.52;;;;;;;;;;5054511;28;20452;-63
2021/04/20 05:05:55;;;;;;;49.05;15.30;;;;;;;;;;5054382;28;20052;-63
2021/04/20 05:08:20;;;;;;;58.53;16.95;;;;;;;;;;5054176;28;20466;-63
2021/04/20 05:10:45;;;;;;;49.78;15.75;;;;;;;;;;5052266;28;20045;-63
2021/04/20 05:13:11;;;;;;;56.78;17.67;;;;;;;;;;5054326;28;20362;-63
2021/04/20 05:15:36;;;;;;;56.85;15.80;;;;;;;;;;5053919;28;20047;-63
2021/04/20 05:18:01;;;;;;;44.83;16.02;;;;;;;;;;5054329;28;20025;-63
2021/04/20 05:20:27;;;;;;;55.28;16.67;;;;;;;;;;5054012;28;20066;-63
2021/04/20 05:22:54;;;;;;;49.67;16.00;;;;;;;;;;5053990;28;20215;-63
2021/04/20 05:25:20;;;;;;;51.60;16.02;;;;;;;;;;5053718;28;20029;-63
2021/04/20 05:27:47;;;;;;;52.95;14.73;;;;;;;;;;5054160;28;20026;-63
2021/04/20 05:30:13;;;;;;;51.42;15.75;;;;;;;;;;5053870;28;20126;-64
2021/04/20 05:32:40;;;;;;;53.33;16.38;;;;;;;;;;5054306;28;20033;-63
2021/04/20 05:35:06;;;;;;;49.28;15.05;;;;;;;;;;5053804;28;20013;-63
2021/04/20 05:37:42;;;;;;;44.60;15.27;;;;;;;;;;5053854;28;20055;-63
2021/04/20 05:40:09;;;;;;;48.15;13.93;;;;;;;;;;5053415;28;20382;-63
2021/04/20 05:42:35;;;;;;;56.80;15.93;;;;;;;;;;5053669;28;20028;-63
2021/04/20 05:45:01;;;;;;;47.67;14.07;;;;;;;;;;5053371;28;20401;-63
2021/04/20 05:47:26;;;;;;;41.42;13.23;;;;;;;;;;5052337;28;20044;-64
2021/04/20 05:49:59;;;;;;;49.63;13.13;;;;;;;;;;5053543;28;20032;-63
2021/04/20 05:52:24;;;;;;;47.60;13.73;;;;;;;;;;5053603;28;20040;-64
2021/04/20 05:54:53;;;;;;;26.40;10.30;;;;;;;;;;5053499;28;20374;-64
2021/04/20 05:57:18;;;;;;;25.92;9.85;;;;;;;;;;5052292;28;20040;-64
2021/04/20 05:59:45;;;;;;;26.88;9.55;;;;;;;;;;5053305;28;20438;-64
2021/04/20 06:02:13;;;;;;;23.88;8.13;;;;;;;;;;5053533;28;20036;-64
2021/04/20 06:04:39;;;;;;;21.98;7.82;;;;;;;;;;5053391;28;20025;-64
2021/04/20 06:07:04;;;;;;;16.27;7.10;;;;;;;;;;5053396;28;20029;-65
2021/04/20 06:09:29;;;;;;;22.65;6.90;;;;;;;;;;5052853;28;20538;-64
2021/04/20 06:11:55;;;;;;;13.57;5.95;;;;;;;;;;5053135;28;20019;-66
2021/04/20 06:14:20;;;;;;;15.27;6.55;;;;;;;;;;5053278;28;20063;-66
2021/04/20 06:16:45;;;;;;;19.05;7.15;;;;;;;;;;5053265;28;20028;-67
2021/04/20 06:19:11;;;;;;;11.88;6.28;;;;;;;;;;5052984;28;20369;-67
2021/04/20 06:21:36;;;;;;;12.60;5.85;;;;;;;;;;5053157;28;20033;-66
2021/04/20 06:24:03;;;;;;;7.35;4.57;;;;;;;;;;5053172;28;20033;-65
2021/04/20 06:26:28;;;;;;;10.43;5.85;;;;;;;;;;5053042;28;20017;-65
2021/04/20 06:28:53;;;;;;;10.80;5.97;;;;;;;;;;5053263;28;20079;-65
2021/04/20 06:31:19;;;;;;;13.38;5.85;;;;;;;;;;5052874;28;20457;-65
2021/04/20 06:33:45;;;;;;;11.30;6.22;;;;;;;;;;5052830;28;20431;-65
2021/04/20 06:36:11;;;;;;;13.18;6.07;;;;;;;;;;5052966;28;20111;-65
2021/04/20 06:38:37;;;;;;;11.63;5.47;;;;;;;;;;5052526;28;20057;-65
2021/04/20 06:41:04;;;;;;;11.10;5.50;;;;;;;;;;5052861;28;20013;-65
2021/04/20 06:43:30;;;;;;;8.68;5.28;;;;;;;;;;5052945;28;20032;-65
2021/04/20 06:45:58;;;;;;;10.98;5.25;;;;;;;;;;5052571;28;20537;-65
2021/04/20 06:48:42;;;;;;;10.65;5.70;;;;;;;;;;5052863;28;20111;-65
2021/04/20 06:51:17;;;;;;;10.27;5.30;;;;;;;;;;5052639;28;20048;-65
2021/04/20 06:53:43;;;;;;;;;;;;;;;;;;5053439;28;20035;-65
2021/04/20 06:56:08;;;;;;;;;;;;;;;;;;5053059;28;19909;-65
2021/04/20 06:58:53;;;;;;;10.57;5.83;;;;;;;;;;5052788;28;20353;-65
2021/04/20 07:01:20;;;;;;;9.93;5.28;;;;;;;;;;5052613;28;20082;-66
2021/04/20 07:03:51;;;;;;;10.90;5.28;;;;;;;;;;5051537;28;20021;-66
2021/04/20 07:06:16;;;;;;;10.25;5.53;;;;;;;;;;5052601;28;20037;-65
2021/04/20 07:08:59;;;;;;;12.15;5.82;;;;;;;;;;5052817;28;20473;-66
2021/04/20 07:11:26;;;;;;;13.10;6.10;;;;;;;;;;5052779;28;20041;-66
2021/04/20 07:13:53;;;;;;;10.13;5.95;;;;;;;;;;5052431;28;20393;-66
2021/04/20 07:16:24;;;;;;;8.75;5.45;;;;;;;;;;5052505;28;20032;-66
2021/04/20 07:19:02;;;;;;;12.25;6.38;;;;;;;;;;5052729;28;20108;-66
2021/04/20 07:21:36;;;;;;;14.02;7.07;;;;;;;;;;5052329;28;20068;-66
2021/04/20 07:24:13;;;;;;;14.40;5.97;;;;;;;;;;5051228;28;20021;-66
2021/04/20 07:26:48;;;;;;;9.65;6.05;;;;;;;;;;5046148;28;20029;-66
2021/04/20 07:29:22;;;;;;;11.82;6.40;;;;;;;;;;5049478;28;20484;-66
2021/04/20 07:31:54;;;;;;;14.82;6.25;;;;;;;;;;5049441;28;20048;-66
2021/04/20 07:34:29;;;;;;;15.63;7.90;;;;;;;;;;5052339;28;20039;-67
2021/04/20 07:36:56;;;;;;;;;;;;;;;;;;5053600;28;20041;-66
2021/04/20 07:39:23;;;;;;;14.15;7.72;;;;;;;;;;5053281;28;19917;-66
2021/04/20 07:41:48;;;;;;;14.35;7.82;;;;;;;;;;5053113;28;20037;-66
2021/04/20 07:44:13;;;;;;;15.25;9.25;;;;;;;;;;5052737;28;20041;-66
2021/04/20 07:46:45;;;;;;;16.38;9.45;;;;;;;;;;5053660;28;20466;-66
2021/04/20 07:49:16;;;;;;;16.85;9.07;;;;;;;;;;5047026;28;20024;-66
2021/04/20 07:51:48;;;;;;;15.52;8.77;;;;;;;;;;5047688;28;20166;-66
2021/04/20 07:54:14;;;;;;;15.10;8.82;;;;;;;;;;5040787;28;20029;-67
2021/04/20 07:56:48;;;;;;;14.90;8.82;;;;;;;;;;5048154;28;20078;-66
2021/04/20 07:59:17;;;;;;;13.65;9.38;;;;;;;;;;5047522;28;20307;-67
2021/04/20 08:01:52;;;;;;;18.48;9.18;;;;;;;;;;5046625;28;20033;-67
2021/04/20 08:04:35;;;;;;;14.88;9.35;;;;;;;;;;5036741;28;20025;-66
2021/04/20 08:07:10;;;;;;;19.55;9.98;;;;;;;;;;5047333;28;20036;-67
2021/04/20 08:09:35;;;;;;;;;;;;;;;;;;5048130;28;20534;-67
2021/04/20 08:12:19;;;;;;;21.02;11.35;;;;;;;;;;5047607;28;19917;-66
2021/04/20 08:14:50;;;;;;;18.23;11.23;;;;;;;;;;5047252;28;20416;-66
2021/04/20 08:17:21;;;;;;;17.00;11.43;;;;;;;;;;5046857;28;20025;-67
2021/04/20 08:19:52;;;;;;;16.85;11.52;;;;;;;;;;5042701;28;20036;-66
2021/04/20 08:22:18;;;;;;;21.60;11.27;;;;;;;;;;5035641;28;20025;-67
2021/04/20 08:24:49;;;;;;;19.35;11.43;;;;;;;;;;5035889;28;20033;-67
2021/04/20 08:27:20;;;;;;;19.40;11.43;;;;;;;;;;5043852;28;20590;-67
2021/04/20 08:29:47;;;;;;;18.95;11.18;;;;;;;;;;5046248;28;20039;-66
2021/04/20 08:32:14;;;;;;;19.10;11.65;;;;;;;;;;5046331;28;20118;-67
2021/04/20 08:34:45;;;;;;;19.05;10.90;;;;;;;;;;5047056;28;20043;-66
2021/04/20 08:37:31;;;;;;;18.65;11.18;;;;;;;;;;5046067;28;20059;-67
2021/04/20 08:40:15;;;;;;;18.65;11.15;;;;;;;;;;5045841;28;20060;-67
2021/04/20 08:42:47;;;;;;;16.92;10.90;;;;;;;;;;5047510;28;20036;-67
2021/04/20 08:45:35;;;;;;;19.90;11.82;;;;;;;;;;5045409;28;20033;-67
2021/04/20 08:48:04;;;;;;;19.42;11.52;;;;;;;;;;5045072;28;20040;-67
2021/04/20 08:50:34;;;;;;;18.33;11.25;;;;;;;;;;5045609;28;20037;-67
2021/04/20 08:53:14;;;;;;;22.45;12.43;;;;;;;;;;5046773;28;20086;-67
2021/04/20 08:55:46;;;;;;;18.58;11.20;;;;;;;;;;5046974;28;20070;-67
2021/04/20 08:58:17;;;;;;;17.17;11.15;;;;;;;;;;5046024;28;20041;-67
2021/04/20 09:00:46;;;;;;;16.17;10.07;;;;;;;;;;5045987;28;20486;-67
2021/04/20 09:03:26;;;;;;;19.27;11.05;;;;;;;;;;5045657;28;20033;-67
2021/04/20 09:05:54;;;;;;;18.08;10.93;;;;;;;;;;5046044;28;20472;-67
2021/04/20 09:08:32;;;;;;;17.58;10.98;;;;;;;;;;5042135;28;20033;-67
2021/04/20 09:11:11;;;;;;;17.10;10.88;;;;;;;;;;5045703;28;20103;-67
2021/04/20 09:13:39;;;;;;;15.82;10.15;;;;;;;;;;5046460;28;20556;-67
2021/04/20 09:16:06;;;;;;;14.82;9.70;;;;;;;;;;5039277;28;20025;-67
2021/04/20 09:18:36;;;;;;;16.80;10.48;;;;;;;;;;5042425;28;20032;-67
2021/04/20 09:21:04;;;;;;;16.58;10.68;;;;;;;;;;5042382;28;20347;-67
2021/04/20 09:23:35;;;;;;;17.45;9.43;;;;;;;;;;5040945;28;20036;-67
2021/04/20 09:26:12;;;;;;;16.02;10.32;;;;;;;;;;5041309;28;20071;-67
2021/04/20 09:28:40;;;;;;;17.70;9.90;;;;;;;;;;5043548;28;20041;-67
2021/04/20 09:31:16;;;;;;;16.45;9.30;;;;;;;;;;5042421;28;20147;-67
2021/04/20 09:33:50;;;;;;;14.95;9.73;;;;;;;;;;5043172;28;20489;-67
2021/04/20 09:36:16;;;;;;;19.17;9.98;;;;;;;;;;5042227;28;20428;-67
2021/04/20 09:38:46;;;;;;;17.17;10.30;;;;;;;;;;5043056;28;20041;-67
2021/04/20 09:41:13;;;;;;;18.55;10.88;;;;;;;;;;5041839;28;20102;-67
2021/04/20 09:44:04;;;;;;;17.55;10.90;;;;;;;;;;5042100;28;20509;-67
2021/04/20 09:46:41;;;;;;;15.02;9.80;;;;;;;;;;5036024;28;20048;-67
2021/04/20 09:49:06;;;;;;;25.05;10.45;;;;;;;;;;5041323;28;20065;-67
2021/04/20 09:51:35;;;;;;;18.70;10.03;;;;;;;;;;5040190;28;20124;-67
2021/04/20 09:54:09;;;;;;;19.98;10.20;;;;;;;;;;5044779;28;20284;-67
2021/04/20 09:56:38;;;;;;;16.73;9.57;;;;;;;;;;5047869;28;20074;-67
2021/04/20 09:59:07;;;;;;;13.93;9.18;;;;;;;;;;5048289;28;20041;-67
2021/04/20 10:01:47;;;;;;;14.80;9.00;;;;;;;;;;5033029;28;20074;-67
2021/04/20 10:04:17;;;;;;;15.23;9.18;;;;;;;;;;5043982;28;20024;-67
2021/04/20 10:06:54;;;;;;;15.52;10.23;;;;;;;;;;5044977;28;20036;-67
2021/04/20 10:09:26;;;;;;;16.50;8.85;;;;;;;;;;5045040;28;20029;-67
2021/04/20 10:11:54;;;;;;;18.02;9.48;;;;;;;;;;5044911;28;20652;-67
2021/04/20 10:14:33;;;;;;;17.27;8.90;;;;;;;;;;5042308;28;20038;-67
2021/04/20 10:17:04;;;;;;;18.35;10.38;;;;;;;;;;5034217;28;20070;-67
2021/04/20 10:19:44;;;;;;;15.00;9.52;;;;;;;;;;5044942;28;20033;-67
2021/04/20 10:22:21;;;;;;;15.68;8.77;;;;;;;;;;5043702;28;20698;-67
2021/04/20 10:25:16;;;;;;;20.60;9.70;;;;;;;;;;5044401;28;20450;-67
2021/04/20 10:27:43;;;;;;;17.08;9.85;;;;;;;;;;5034560;28;20048;-67
2021/04/20 10:30:11;;;;;;;15.00;10.00;;;;;;;;;;5044075;28;20045;-66
2021/04/20 10:32:37;;;;;;;18.50;10.20;;;;;;;;;;5045300;28;20013;-67
2021/04/20 10:35:04;;;;;;;17.15;8.82;;;;;;;;;;5044093;28;20463;-66
2021/04/20 10:37:39;;;;;;;18.30;11.65;;;;;;;;;;5045074;28;20033;-66
2021/04/20 10:40:12;;;;;;;22.60;12.25;;;;;;;;;;5044223;28;20045;-66
2021/04/20 10:42:38;;;;;;;17.30;10.50;;;;;;;;;;5044980;28;20061;-66
2021/04/20 10:45:07;;;;;;;20.67;11.45;;;;;;;;;;5044076;28;20060;-66
2021/04/20 10:47:34;;;;;;;18.63;9.82;;;;;;;;;;5044813;28;20047;-66
2021/04/20 10:50:00;;;;;;;21.00;10.07;;;;;;;;;;5038816;28;20033;-66
2021/04/20 10:52:30;;;;;;;22.80;11.02;;;;;;;;;;5041416;28;20031;-66
2021/04/20 10:55:25;;;;;;;25.88;12.55;;;;;;;;;;5031050;28;20540;-66
2021/04/20 10:57:51;;;;;;;22.30;12.00;;;;;;;;;;5035548;28;20049;-66
2021/04/20 11:00:19;;;;;;;24.95;12.50;;;;;;;;;;5048458;28;20106;-66
2021/04/20 11:02:47;;;;;;;18.90;11.18;;;;;;;;;;5048736;28;20029;-66
2021/04/20 11:05:23;;;;;;;25.77;12.85;;;;;;;;;;5048913;28;20112;-66
2021/04/20 11:07:48;;;;;;;;;;;;;;;;;;5049978;28;20603;-66
2021/04/20 11:10:17;;;;;;;20.65;11.82;;;;;;;;;;5052518;28;20015;-65
2021/04/20 11:12:46;;;;;;;22.45;11.15;;;;;;;;;;5053059;28;20186;-65
2021/04/20 11:15:14;;;;;;;21.38;11.07;;;;;;;;;;5055795;28;20476;-66
2021/04/20 11:17:42;;;;;;;24.42;11.65;;;;;;;;;;5056367;28;20029;-66
2021/04/20 11:20:11;;;;;;;19.85;11.20;;;;;;;;;;5055848;28;20025;-65
2021/04/20 11:22:41;;;;;;;20.15;10.90;;;;;;;;;;5056057;28;20017;-65
2021/04/20 11:25:15;;;;;;;20.77;10.70;;;;;;;;;;5056025;28;20032;-65
2021/04/20 11:27:41;;;;;;;22.08;10.02;;;;;;;;;;5056217;28;20033;-65
2021/04/20 11:30:14;;;;;;;19.90;9.73;;;;;;;;;;5055916;28;20067;-65
2021/04/20 11:32:46;;;;;;;19.40;10.43;;;;;;;;;;5055956;28;20381;-66
2021/04/20 11:35:13;;;;;;;15.70;9.45;;;;;;;;;;5055564;28;20493;-65
2021/04/20 11:37:38;;;;;;;17.73;10.30;;;;;;;;;;5056127;28;20028;-65
2021/04/20 11:40:15;;;;;;;22.63;10.82;;;;;;;;;;5055385;28;20053;-65
2021/04/20 11:42:41;;;;;;;19.23;10.93;;;;;;;;;;5039361;28;20043;-66
2021/04/20 11:45:33;;;;;;;20.33;10.20;;;;;;;;;;5035762;28;20017;-65
2021/04/20 11:48:00;;;;;;;18.00;8.77;;;;;;;;;;5033358;28;20049;-65
2021/04/20 11:50:27;;;;;;;17.92;10.65;;;;;;;;;;5035488;28;20355;-65
2021/04/20 11:52:57;;;;;;;21.25;10.80;;;;;;;;;;5035867;28;20385;-65
2021/04/20 11:55:27;;;;;;;16.05;9.18;;;;;;;;;;5035666;28;20039;-65
2021/04/20 11:57:53;;;;;;;20.75;10.18;;;;;;;;;;5035479;28;20021;-65
2021/04/20 12:00:18;;;;;;;15.55;8.95;;;;;;;;;;5035141;28;20037;-65
2021/04/20 12:02:44;;;;;;;16.73;9.73;;;;;;;;;;5035295;28;20453;-65
2021/04/20 12:05:10;;;;;;;20.02;9.93;;;;;;;;;;5035526;28;20101;-66
2021/04/20 12:07:36;;;;;;;20.52;10.07;;;;;;;;;;5035263;28;20033;-65
2021/04/20 12:10:02;;;;;;;16.52;9.35;;;;;;;;;;5035675;28;20489;-65
2021/04/20 12:12:29;;;;;;;19.65;8.75;;;;;;;;;;5035139;28;20521;-65
2021/04/20 12:14:55;;;;;;;18.00;9.73;;;;;;;;;;5035317;28;20033;-65
2021/04/20 12:17:30;;;;;;;20.98;10.57;;;;;;;;;;5034410;28;20485;-65
2021/04/20 12:19:55;;;;;;;;;;;;;;;;;;5035674;28;20100;-65
2021/04/20 12:22:24;;;;;;;24.98;10.63;;;;;;;;;;5035289;28;20024;-65
2021/04/20 12:24:50;;;;;;;16.60;9.40;;;;;;;;;;5035499;28;20033;-65
2021/04/20 12:27:21;;;;;;;23.90;10.93;;;;;;;;;;5034889;28;20026;-66
2021/04/20 12:29:47;;;;;;;17.98;10.15;;;;;;;;;;5035501;28;20496;-65
2021/04/20 12:32:13;;;;;;;15.75;9.82;;;;;;;;;;5035180;28;20037;-65
2021/04/20 12:34:38;;;;;;;21.92;10.55;;;;;;;;;;5034882;28;20478;-66
2021/04/20 12:37:04;;;;;;;20.38;10.30;;;;;;;;;;5035369;28;20095;-65
2021/04/20 12:39:38;;;;;;;20.55;10.30;;;;;;;;;;5034609;28;20449;-65
2021/04/20 12:42:10;;;;;;;17.15;10.20;;;;;;;;;;5046418;28;20036;-65
2021/04/20 12:44:40;;;;;;;23.65;10.23;;;;;;;;;;5054942;28;20033;-66
2021/04/20 12:47:07;;;;;;;21.42;9.82;;;;;;;;;;5054815;28;20120;-65
2021/04/20 12:49:34;;;;;;;18.13;10.05;;;;;;;;;;5054473;28;20466;-65
2021/04/20 12:52:00;;;;;;;18.73;9.82;;;;;;;;;;5054711;28;20025;-66
2021/04/20 12:54:27;;;;;;;23.58;9.85;;;;;;;;;;5054797;28;20025;-65
2021/04/20 12:56:58;;;;;;;17.05;9.40;;;;;;;;;;5054372;28;20508;-65
2021/04/20 12:59:25;;;;;;;17.02;9.07;;;;;;;;;;5054669;28;20067;-65
2021/04/20 13:01:51;;;;;;;18.70;8.80;;;;;;;;;;5054490;28;20029;-65
2021/04/20 13:04:43;;;;;;;15.30;8.48;;;;;;;;;;5054568;28;20115;-66
2021/04/20 13:07:08;;;;;;;14.02;8.88;;;;;;;;;;5049266;28;20037;-66
2021/04/20 13:09:37;;;;;;;19.23;9.82;;;;;;;;;;5054325;28;20044;-66
2021/04/20 13:12:05;;;;;;;18.17;9.63;;;;;;;;;;5054118;28;20040;-65
2021/04/20 13:14:30;;;;;;;20.55;8.73;;;;;;;;;;5054354;28;20032;-65
2021/04/20 13:16:56;;;;;;;16.30;7.65;;;;;;;;;;5054310;28;20029;-65
2021/04/20 13:19:29;;;;;;;13.88;8.35;;;;;;;;;;5054343;28;20083;-65
2021/04/20 13:21:56;;;;;;;19.77;10.25;;;;;;;;;;5054198;28;20032;-66
2021/04/20 13:24:22;;;;;;;20.70;9.18;;;;;;;;;;5054132;28;20094;-65
2021/04/20 13:26:51;;;;;;;20.27;9.90;;;;;;;;;;5054075;28;20020;-65
2021/04/20 13:29:16;;;;;;;20.13;8.95;;;;;;;;;;5054050;28;20036;-65
2021/04/20 13:31:47;;;;;;;17.63;8.77;;;;;;;;;;5052921;28;20124;-65
2021/04/20 13:34:14;;;;;;;15.13;7.85;;;;;;;;;;5054084;28;20017;-65
2021/04/20 13:36:46;;;;;;;20.38;9.35;;;;;;;;;;5053893;28;20027;-65
2021/04/20 13:39:16;;;;;;;14.57;8.95;;;;;;;;;;5053887;28;20052;-65
2021/04/20 13:41:52;;;;;;;18.77;8.60;;;;;;;;;;5053778;28;20029;-65
2021/04/20 13:44:21;;;;;;;14.85;8.57;;;;;;;;;;5053803;28;20039;-65
2021/04/20 13:46:48;;;;;;;17.48;8.93;;;;;;;;;;5053630;28;20033;-65
2021/04/20 13:49:13;;;;;;;18.75;9.55;;;;;;;;;;5053424;28;20041;-65
2021/04/20 13:51:41;;;;;;;16.27;8.82;;;;;;;;;;5053346;28;20036;-65
2021/04/20 13:54:08;;;;;;;16.70;10.43;;;;;;;;;;5053579;28;20029;-65
2021/04/20 13:56:35;;;;;;;13.85;8.60;;;;;;;;;;5053529;28;20045;-65
2021/04/20 13:59:09;;;;;;;16.67;7.55;;;;;;;;;;5053312;28;20048;-65
2021/04/20 14:01:35;;;;;;;19.10;8.77;;;;;;;;;;5053334;28;20068;-65
2021/04/20 14:04:10;;;;;;;16.98;8.48;;;;;;;;;;5053509;28;20090;-65
2021/04/20 14:06:47;;;;;;;17.75;8.32;;;;;;;;;;5053266;28;20079;-65
2021/04/20 14:09:13;;;;;;;15.82;7.97;;;;;;;;;;5053574;28;20033;-65
2021/04/20 14:12:00;;;;;;;19.58;8.40;;;;;;;;;;5053010;28;20181;-65
2021/04/20 14:14:29;;;;;;;20.38;8.65;;;;;;;;;;5053323;28;20083;-65
2021/04/20 14:16:56;;;;;;;17.95;8.63;;;;;;;;;;5053225;28;20107;-65
2021/04/20 14:19:23;;;;;;;13.35;8.52;;;;;;;;;;5053297;28;20128;-66
2021/04/20 14:21:48;;;;;;;16.98;7.93;;;;;;;;;;5053095;28;20025;-65
2021/04/20 14:24:15;;;;;;;12.15;7.60;;;;;;;;;;5053315;28;20101;-65
2021/04/20 14:26:45;;;;;;;16.85;8.27;;;;;;;;;;5052990;28;20044;-65
2021/04/20 14:29:11;;;;;;;15.93;8.35;;;;;;;;;;5053228;28;20024;-65
2021/04/20 14:31:37;;;;;;;19.27;8.80;;;;;;;;;;5052890;28;20041;-65